Time;durP1;ratioP1;P1;durP2;ratioP2;P2;SDS_P1;SDS_P2;PMS_P1;PMS_P2;Temp;Humidity;BMP_temperature;BMP_pressure;BME280_temperature;BME280_humidity;BME280_pressure;Samples;Min_cycle;Max_cycle;Signal;HPM_P1;HPM_P2
2021/04/25 00:00:13;;;;;;;14.38;3.20;;;;;;;23.55;39.35;100027.19;4531863;31;33994;-60
2021/04/25 00:02:40;;;;;;;10.60;3.10;;;;;;;23.56;39.44;100025.28;4521943;31;33864;-60
2021/04/25 00:05:08;;;;;;;9.98;2.83;;;;;;;23.56;39.40;100025.28;4515368;31;34622;-60
2021/04/25 00:07:36;;;;;;;13.55;2.72;;;;;;;23.55;39.45;100016.28;4515847;31;34313;-58
2021/04/25 00:10:04;;;;;;;9.50;2.42;;;;;;;23.55;39.42;100023.59;4516142;31;34261;-59
2021/04/25 00:12:31;;;;;;;10.45;2.70;;;;;;;23.54;39.42;100016.50;4515966;31;33295;-59
2021/04/25 00:14:58;;;;;;;10.20;2.65;;;;;;;23.53;39.42;100012.94;4522889;31;34592;-60
2021/04/25 00:17:26;;;;;;;14.77;2.92;;;;;;;23.53;39.44;100014.84;4519863;31;33879;-59
2021/04/25 00:19:54;;;;;;;9.93;2.80;;;;;;;23.52;39.44;100014.00;4523052;31;34533;-62
2021/04/25 00:22:21;;;;;;;14.20;2.40;;;;;;;23.52;39.36;99999.56;4524926;31;34184;-60
2021/04/25 00:24:48;;;;;;;10.40;2.60;;;;;;;23.51;39.47;100001.44;4518083;31;33791;-60
2021/04/25 00:27:15;;;;;;;11.10;2.90;;;;;;;23.51;39.56;100004.16;4529772;31;33635;-57
2021/04/25 00:29:42;;;;;;;11.50;2.42;;;;;;;23.51;39.52;100006.06;4527648;31;33833;-59
2021/04/25 00:32:10;;;;;;;14.15;2.62;;;;;;;23.50;39.59;99999.78;4523134;31;33436;-59
2021/04/25 00:34:37;;;;;;;16.60;3.20;;;;;;;23.50;39.57;99999.78;4531670;31;33980;-60
2021/04/25 00:37:06;;;;;;;10.25;2.62;;;;;;;23.49;39.54;100000.00;4531911;31;34783;-59
2021/04/25 00:39:34;;;;;;;13.48;2.40;;;;;;;23.50;39.55;99999.78;4531365;31;33908;-59
2021/04/25 00:42:02;;;;;;;14.65;3.03;;;;;;;23.49;39.50;100003.53;4526840;31;34217;-59
2021/04/25 00:44:29;;;;;;;12.13;2.50;;;;;;;23.48;39.53;99995.59;4515356;31;34875;-60
2021/04/25 00:46:56;;;;;;;6.82;2.20;;;;;;;23.48;39.51;100012.78;4515423;31;33978;-60
2021/04/25 00:49:24;;;;;;;9.95;2.90;;;;;;;23.48;39.47;100007.31;4515623;31;34611;-59
2021/04/25 00:51:52;;;;;;;11.85;3.08;;;;;;;23.47;39.48;100011.09;4515219;31;33623;-59
2021/04/25 00:54:19;;;;;;;12.05;2.25;;;;;;;23.47;39.49;100002.94;4517681;31;34033;-61
2021/04/25 00:56:46;;;;;;;7.90;2.58;;;;;;;23.48;39.48;100003.78;4529774;31;33985;-62
2021/04/25 00:59:14;;;;;;;11.70;2.47;;;;;;;23.47;39.48;99994.78;4500735;31;33669;-61
2021/04/25 01:01:41;;;;;;;15.82;2.90;;;;;;;23.47;39.48;100002.13;4501011;31;33151;-62
2021/04/25 01:04:09;;;;;;;10.77;2.80;;;;;;;23.48;39.77;99995.59;4515273;31;34944;-59
2021/04/25 01:06:36;;;;;;;9.75;2.75;;;;;;;23.52;39.80;99997.66;4515504;31;33704;-62
2021/04/25 01:09:04;;;;;;;14.55;3.12;;;;;;;23.64;39.70;99993.19;4515141;31;33545;-60
2021/04/25 01:11:31;;;;;;;6.75;2.55;;;;;;;23.81;39.58;99985.28;4492168;31;33387;-60
2021/04/25 01:13:58;;;;;;;12.40;2.35;;;;;;;23.96;39.41;99974.00;4530919;31;33851;-61
2021/04/25 01:16:27;;;;;;;9.18;2.03;;;;;;;24.13;39.22;99982.44;4517216;31;33835;-62
2021/04/25 01:19:02;;;;;;;9.45;2.33;;;;;;;24.29;39.01;99975.53;4518157;31;34849;-61
2021/04/25 01:21:30;;;;;;;10.88;2.37;;;;;;;24.43;38.83;99980.66;4532976;31;34133;-59
2021/04/25 01:24:01;;;;;;;6.50;2.40;;;;;;;24.57;38.63;99983.19;4522077;31;34740;-61
2021/04/25 01:26:28;;;;;;;11.82;2.42;;;;;;;24.71;38.43;99976.47;4527480;31;34831;-61
2021/04/25 01:28:55;;;;;;;11.38;2.65;;;;;;;24.82;38.26;99988.53;4533063;31;33809;-61
2021/04/25 01:31:22;;;;;;;9.95;2.22;;;;;;;24.89;38.14;99970.97;4516891;31;34305;-61
2021/04/25 01:33:49;;;;;;;7.60;2.30;;;;;;;24.97;38.07;99971.72;4516949;31;33493;-60
2021/04/25 01:36:17;;;;;;;7.55;2.25;;;;;;;25.02;38.02;99969.97;4516937;31;34864;-62
2021/04/25 01:38:44;;;;;;;13.15;2.87;;;;;;;25.08;37.92;99973.69;4516683;31;33822;-62
2021/04/25 01:41:11;;;;;;;11.88;2.33;;;;;;;25.10;37.98;99964.19;4516613;31;34292;-62
2021/04/25 01:43:39;;;;;;;10.63;2.33;;;;;;;25.13;37.96;99971.94;4516855;31;33963;-59
2021/04/25 01:46:06;;;;;;;8.60;2.28;;;;;;;25.13;37.92;99971.94;4516769;31;33903;-61
2021/04/25 01:48:33;;;;;;;8.43;2.45;;;;;;;25.14;37.87;99976.31;4516632;31;34495;-62
2021/04/25 01:51:00;;;;;;;10.80;2.72;;;;;;;25.15;37.98;99974.44;4516835;31;33279;-61
2021/04/25 01:53:27;;;;;;;8.13;2.20;;;;;;;25.14;37.94;99967.31;4516957;31;33755;-61
2021/04/25 01:55:54;;;;;;;11.07;2.58;;;;;;;25.13;38.05;99971.06;4516839;31;33633;-62
2021/04/25 01:58:22;;;;;;;9.88;2.17;;;;;;;25.12;38.16;99972.97;4516817;31;34654;-61
2021/04/25 02:00:49;;;;;;;10.38;2.22;;;;;;;25.10;38.18;99977.84;4516689;31;33259;-61
2021/04/25 02:03:17;;;;;;;7.97;2.20;;;;;;;25.09;38.19;99968.00;4516552;31;34021;-62
2021/04/25 02:05:44;;;;;;;10.82;2.10;;;;;;;25.07;38.27;99972.84;4516824;31;33842;-61
2021/04/25 02:08:12;;;;;;;6.20;1.90;;;;;;;25.05;38.22;99965.94;4516683;31;33509;-60
2021/04/25 02:10:39;;;;;;;12.37;2.65;;;;;;;25.02;38.24;99967.22;4516612;31;33358;-61
2021/04/25 02:13:06;;;;;;;14.10;2.87;;;;;;;25.00;38.31;99960.34;4516726;31;33711;-61
2021/04/25 02:15:36;;;;;;;9.30;2.25;;;;;;;24.98;38.30;99957.84;4516619;31;33875;-61
2021/04/25 02:18:04;;;;;;;7.40;2.45;;;;;;;24.95;38.26;99952.88;4519217;31;33743;-60
2021/04/25 02:20:32;;;;;;;7.80;2.20;;;;;;;24.93;38.39;99954.97;4530681;31;33985;-61
2021/04/25 02:22:59;;;;;;;9.45;2.25;;;;;;;24.90;38.53;99959.03;4523596;31;33845;-61
2021/04/25 02:25:27;;;;;;;9.13;2.08;;;;;;;24.87;38.52;99948.56;4532615;31;34861;-61
2021/04/25 02:27:55;;;;;;;7.12;2.30;;;;;;;24.84;38.48;99949.00;4519648;31;34059;-61
2021/04/25 02:30:24;;;;;;;7.00;2.40;;;;;;;24.81;38.53;99940.47;4518651;31;34227;-61
2021/04/25 02:32:51;;;;;;;5.32;2.05;;;;;;;24.79;38.56;99942.59;4532771;31;33840;-62
2021/04/25 02:35:19;;;;;;;7.30;1.90;;;;;;;24.77;38.60;99934.66;4532709;31;33926;-62
2021/04/25 02:37:46;;;;;;;6.93;1.98;;;;;;;24.74;38.83;99934.28;4532453;31;33744;-62
2021/04/25 02:40:15;;;;;;;15.52;2.25;;;;;;;24.70;38.97;99933.91;4518562;31;34705;-61
2021/04/25 02:42:43;;;;;;;7.03;1.98;;;;;;;24.68;38.99;99933.31;4516356;31;34522;-61
2021/04/25 02:45:17;;;;;;;5.37;1.75;;;;;;;24.65;38.86;99931.84;4516333;31;34483;-61
2021/04/25 02:47:51;;;;;;;6.10;1.83;;;;;;;24.64;38.86;99934.81;4516912;31;33803;-61
2021/04/25 02:50:19;;;;;;;6.28;1.75;;;;;;;24.63;38.85;99938.63;4516558;31;33415;-61
2021/04/25 02:52:46;;;;;;;7.32;2.20;;;;;;;24.60;38.85;99929.00;4516261;31;34790;-63
2021/04/25 02:55:14;;;;;;;9.05;2.00;;;;;;;24.58;38.88;99933.88;4516525;31;33515;-61
2021/04/25 02:57:41;;;;;;;10.27;1.92;;;;;;;24.58;38.94;99930.31;4516462;31;33468;-61
2021/04/25 03:00:11;;;;;;;5.57;1.95;;;;;;;24.56;38.95;99932.41;4516205;31;33221;-60
2021/04/25 03:02:38;;;;;;;7.72;2.00;;;;;;;24.52;39.08;99925.75;4516081;31;33774;-62
2021/04/25 03:05:06;;;;;;;8.65;2.15;;;;;;;24.50;39.12;99923.25;4516979;31;33793;-61
2021/04/25 03:07:33;;;;;;;4.55;1.75;;;;;;;24.46;39.31;99922.06;4516122;31;34532;-61
2021/04/25 03:10:00;;;;;;;9.68;1.90;;;;;;;24.42;39.32;99927.13;4516544;31;33338;-61
2021/04/25 03:12:28;;;;;;;11.90;3.20;;;;;;;24.41;39.17;99920.03;4516180;31;34914;-61
2021/04/25 03:14:56;;;;;;;9.52;2.20;;;;;;;24.38;39.21;99922.38;4517392;31;34507;-61
2021/04/25 03:17:23;;;;;;;7.87;2.40;;;;;;;24.36;39.18;99916.28;4532086;31;34694;-62
2021/04/25 03:19:50;;;;;;;5.37;2.40;;;;;;;24.34;38.70;99915.69;4532062;31;33253;-60
2021/04/25 03:22:18;;;;;;;16.48;2.65;;;;;;;24.31;38.52;99916.16;4531455;31;33494;-62
2021/04/25 03:24:45;;;;;;;14.15;3.00;;;;;;;24.29;38.49;99916.34;4532253;31;34871;-61
2021/04/25 03:27:12;;;;;;;16.15;3.35;;;;;;;24.27;38.70;99914.94;4532262;31;33419;-61
2021/04/25 03:29:40;;;;;;;14.80;3.10;;;;;;;24.26;38.58;99913.28;4532170;31;34085;-60
2021/04/25 03:32:07;;;;;;;9.65;2.47;;;;;;;24.24;38.70;99905.31;4532244;31;34865;-61
2021/04/25 03:34:34;;;;;;;10.32;2.67;;;;;;;24.23;38.64;99917.28;4532144;31;33821;-61
2021/04/25 03:37:01;;;;;;;12.52;2.83;;;;;;;24.21;38.74;99910.41;4531994;31;33492;-61
2021/04/25 03:39:28;;;;;;;10.20;2.50;;;;;;;24.18;38.87;99904.34;4530440;31;33321;-61
2021/04/25 03:41:55;;;;;;;13.50;3.00;;;;;;;24.16;38.86;99909.19;4531924;31;33817;-62
2021/04/25 03:44:23;;;;;;;11.93;2.67;;;;;;;24.15;38.91;99909.41;4531792;31;33905;-61
2021/04/25 03:46:50;;;;;;;11.95;2.72;;;;;;;24.13;38.93;99909.66;4532104;31;34382;-60
2021/04/25 03:49:21;;;;;;;14.13;3.17;;;;;;;24.13;38.99;99903.38;4532103;31;33348;-61
2021/04/25 03:51:48;;;;;;;7.85;2.53;;;;;;;24.11;39.07;99906.34;4532295;31;33897;-61
2021/04/25 03:54:16;;;;;;;14.15;2.80;;;;;;;24.10;39.04;99909.28;4532124;31;34795;-61
2021/04/25 03:56:43;;;;;;;16.48;3.12;;;;;;;24.08;39.00;99912.22;4531297;31;34536;-61
2021/04/25 03:59:10;;;;;;;7.37;2.37;;;;;;;24.06;39.04;99914.38;4531848;31;33892;-61
2021/04/25 04:01:37;;;;;;;9.52;2.55;;;;;;;24.06;39.08;99916.22;4531887;31;31756;-60
2021/04/25 04:04:05;;;;;;;8.73;2.55;;;;;;;24.05;39.06;99906.41;4531784;31;35011;-61
2021/04/25 04:06:32;;;;;;;11.38;2.62;;;;;;;24.03;39.16;99909.37;4531706;31;34612;-62
2021/04/25 04:09:00;;;;;;;14.02;2.67;;;;;;;24.02;39.15;99909.59;4529894;31;34293;-61
2021/04/25 04:11:27;;;;;;;12.35;2.80;;;;;;;24.00;39.22;99903.53;4519541;31;33499;-59
2021/04/25 04:13:54;;;;;;;7.25;2.50;;;;;;;23.99;39.16;99908.16;4522594;31;33710;-60
2021/04/25 04:16:21;;;;;;;10.88;3.10;;;;;;;23.99;39.21;99905.41;4515797;31;32522;-59
2021/04/25 04:18:49;;;;;;;7.07;2.10;;;;;;;23.98;39.25;99908.38;4515853;31;33476;-60
2021/04/25 04:21:16;;;;;;;8.65;2.42;;;;;;;23.96;39.27;99911.31;4528120;31;34543;-59
2021/04/25 04:23:43;;;;;;;11.43;2.17;;;;;;;23.95;39.31;99906.94;4531623;31;35356;-59
2021/04/25 04:26:11;;;;;;;11.25;2.65;;;;;;;23.95;39.33;99908.81;4531879;31;34575;-60
2021/04/25 04:28:38;;;;;;;11.60;2.45;;;;;;;23.93;39.34;99907.16;4531434;31;35045;-61
2021/04/25 04:31:05;;;;;;;6.35;1.92;;;;;;;23.92;39.32;99904.66;4528591;31;34516;-61
2021/04/25 04:33:33;;;;;;;13.05;2.35;;;;;;;23.91;39.39;99906.53;4524386;31;33968;-62
2021/04/25 04:36:00;;;;;;;13.10;2.53;;;;;;;23.90;39.41;99906.78;4515516;31;33647;-61
2021/04/25 04:38:27;;;;;;;10.15;2.20;;;;;;;23.90;39.45;99901.34;4527489;31;33342;-61
2021/04/25 04:40:56;;;;;;;10.88;2.30;;;;;;;23.88;39.47;99898.84;4531318;31;33797;-60
2021/04/25 04:43:24;;;;;;;8.93;2.30;;;;;;;23.88;39.57;99892.56;4522547;31;33976;-61
2021/04/25 04:45:52;;;;;;;8.10;2.20;;;;;;;23.87;39.55;99886.25;4515512;31;33988;-60
2021/04/25 04:48:20;;;;;;;10.40;2.72;;;;;;;23.86;39.51;99886.50;4515557;31;33366;-61
2021/04/25 04:50:47;;;;;;;8.68;3.30;;;;;;;23.86;39.53;99887.31;4528519;31;33897;-61
2021/04/25 04:53:14;;;;;;;11.20;2.28;;;;;;;23.85;39.59;99880.22;4531388;31;34721;-60
2021/04/25 04:55:41;;;;;;;10.68;2.50;;;;;;;23.85;39.55;99882.94;4531114;31;34003;-60
2021/04/25 04:58:08;;;;;;;12.18;2.10;;;;;;;23.83;39.60;99882.34;4531524;31;34304;-59
2021/04/25 05:00:35;;;;;;;10.30;2.30;;;;;;;23.83;39.59;99881.53;4531111;31;33830;-61
2021/04/25 05:03:03;;;;;;;13.05;2.75;;;;;;;23.83;39.58;99873.34;4531030;31;35399;-60
2021/04/25 05:05:30;;;;;;;9.15;2.50;;;;;;;23.81;39.63;99870.00;4516558;31;34403;-60
2021/04/25 05:07:59;;;;;;;15.77;3.25;;;;;;;23.81;39.62;99873.56;4531102;31;33275;-60
2021/04/25 05:10:27;;;;;;;11.07;2.40;;;;;;;23.81;39.59;99872.72;4531006;31;33883;-59
2021/04/25 05:12:54;;;;;;;8.35;2.10;;;;;;;23.79;39.61;99870.22;4531105;31;33908;-61
2021/04/25 05:15:21;;;;;;;14.30;2.22;;;;;;;23.79;39.65;99878.41;4531148;31;33936;-61
2021/04/25 05:17:48;;;;;;;10.02;2.35;;;;;;;23.79;39.66;99874.84;4526074;31;33201;-59
2021/04/25 05:20:15;;;;;;;8.70;2.12;;;;;;;23.77;39.70;99866.06;4520413;31;33867;-60
2021/04/25 05:22:42;;;;;;;7.85;2.00;;;;;;;23.75;39.72;99865.47;4521072;31;33815;-59
2021/04/25 05:25:10;;;;;;;7.22;2.28;;;;;;;23.76;39.68;99869.84;4514833;31;33672;-59
2021/04/25 05:27:37;;;;;;;5.80;2.15;;;;;;;23.75;39.71;99868.19;4530144;31;33269;-61
2021/04/25 05:30:04;;;;;;;9.10;2.47;;;;;;;23.74;39.69;99863.81;4530827;31;34017;-59
2021/04/25 05:32:33;;;;;;;8.60;2.15;;;;;;;23.74;39.76;99864.63;4530672;31;33946;-58
2021/04/25 05:35:00;;;;;;;10.40;2.33;;;;;;;23.72;39.79;99864.00;4530902;31;33486;-57
2021/04/25 05:37:27;;;;;;;12.10;2.50;;;;;;;23.72;39.79;99855.84;4530943;31;34124;-60
2021/04/25 05:39:55;;;;;;;9.57;2.40;;;;;;;23.73;39.79;99856.66;4514627;31;33771;-59
2021/04/25 05:42:22;;;;;;;11.02;2.40;;;;;;;23.71;39.73;99862.34;4514806;31;34944;-59
2021/04/25 05:44:50;;;;;;;6.22;2.00;;;;;;;23.71;39.77;99862.34;4514505;31;34040;-60
2021/04/25 05:47:18;;;;;;;8.48;2.05;;;;;;;23.71;39.79;99854.19;4514525;31;33275;-55
2021/04/25 05:49:45;;;;;;;17.60;2.53;;;;;;;23.70;39.88;99860.69;4514420;31;34410;-59
2021/04/25 05:52:12;;;;;;;6.82;1.87;;;;;;;23.70;39.95;99851.69;4514406;31;33714;-60
2021/04/25 05:54:40;;;;;;;12.00;3.17;;;;;;;23.70;39.90;99859.88;4514360;31;33787;-58
2021/04/25 05:57:08;;;;;;;12.52;2.17;;;;;;;23.68;39.83;99858.19;4514386;31;33440;-61
2021/04/25 05:59:36;;;;;;;8.90;1.60;;;;;;;23.68;39.85;99850.00;4514311;31;34548;-60
2021/04/25 06:02:04;;;;;;;9.20;2.58;;;;;;;23.70;39.83;99857.16;4514359;31;33831;-60
2021/04/25 06:04:32;;;;;;;8.27;2.05;;;;;;;23.67;39.87;99853.78;4516733;31;34292;-60
2021/04/25 06:07:00;;;;;;;8.57;2.03;;;;;;;23.67;39.93;99855.69;4516938;31;33301;-59
2021/04/25 06:09:27;;;;;;;6.35;1.98;;;;;;;23.67;39.93;99856.53;4516621;31;33915;-59
2021/04/25 06:11:54;;;;;;;7.28;1.83;;;;;;;23.68;39.86;99854.63;4516821;31;33821;-59
2021/04/25 06:14:21;;;;;;;6.15;1.98;;;;;;;23.66;39.87;99852.12;4516839;31;33483;-58
2021/04/25 06:16:49;;;;;;;9.88;2.00;;;;;;;23.66;39.95;99846.69;4516572;31;33285;-60
2021/04/25 06:19:16;;;;;;;13.32;2.30;;;;;;;23.66;39.90;99843.97;4516748;31;34568;-59
2021/04/25 06:21:43;;;;;;;6.60;2.50;;;;;;;23.66;39.90;99846.69;4514538;31;35354;-61
2021/04/25 06:24:10;;;;;;;7.25;1.95;;;;;;;23.65;39.95;99846.94;4520363;31;34545;-61
2021/04/25 06:26:38;;;;;;;12.98;1.90;;;;;;;23.64;39.93;99847.97;4520373;31;34276;-61
2021/04/25 06:29:05;;;;;;;9.27;2.70;;;;;;;23.65;39.99;99844.19;4525378;31;33788;-61
2021/04/25 06:31:34;;;;;;;8.52;2.40;;;;;;;23.64;39.94;99843.38;4516310;31;34719;-60
2021/04/25 06:34:09;;;;;;;8.38;2.03;;;;;;;23.64;39.95;99845.25;4528401;31;34510;-62
2021/04/25 06:36:41;;;;;;;11.98;2.12;;;;;;;23.63;39.95;99841.66;4532663;31;33226;-62
2021/04/25 06:39:09;;;;;;;12.82;2.20;;;;;;;23.62;40.07;99837.28;4532396;31;33823;-63
2021/04/25 06:41:36;;;;;;;6.60;2.00;;;;;;;23.61;40.12;99842.97;4532377;31;34743;-58
2021/04/25 06:44:04;;;;;;;9.25;1.85;;;;;;;23.62;40.05;99836.44;4532765;31;33735;-61
2021/04/25 06:46:32;;;;;;;8.13;2.28;;;;;;;23.61;40.09;99838.34;4532615;31;33095;-61
2021/04/25 06:48:59;;;;;;;14.07;2.17;;;;;;;23.60;40.11;99836.69;4532351;31;33598;-61
2021/04/25 06:51:26;;;;;;;14.55;2.20;;;;;;;23.60;40.07;99831.22;4532337;31;33945;-60
2021/04/25 06:53:53;;;;;;;8.07;2.10;;;;;;;23.61;40.02;99835.63;4532484;31;34442;-61
2021/04/25 06:56:20;;;;;;;9.20;2.12;;;;;;;23.60;40.08;99833.97;4532342;31;33336;-61
2021/04/25 06:58:47;;;;;;;7.87;1.90;;;;;;;23.60;40.04;99828.50;4532191;31;33804;-61
2021/04/25 07:01:16;;;;;;;8.70;1.75;;;;;;;23.59;40.07;99835.00;4532134;31;33940;-62
2021/04/25 07:03:43;;;;;;;5.75;2.10;;;;;;;23.58;40.07;99830.59;4532170;31;34699;-61
2021/04/25 07:06:11;;;;;;;7.07;1.90;;;;;;;23.58;40.04;99836.06;4523170;31;33377;-60
2021/04/25 07:08:38;;;;;;;10.27;2.62;;;;;;;23.59;40.02;99823.28;4520381;31;33630;-59
2021/04/25 07:11:06;;;;;;;7.62;2.30;;;;;;;23.59;40.00;99828.72;4530397;31;35326;-59
2021/04/25 07:13:33;;;;;;;13.18;2.55;;;;;;;23.58;40.08;99833.34;4524152;31;35213;-62
2021/04/25 07:16:01;;;;;;;9.35;2.17;;;;;;;23.58;40.05;99833.34;4516134;31;33365;-62
2021/04/25 07:18:28;;;;;;;8.23;2.10;;;;;;;23.58;40.00;99837.94;4527224;31;33990;-62
2021/04/25 07:20:55;;;;;;;13.70;2.10;;;;;;;23.58;40.10;99827.06;4532316;31;33914;-62
2021/04/25 07:23:24;;;;;;;6.68;1.90;;;;;;;23.59;40.05;99836.88;4517580;31;34306;-60
2021/04/25 07:25:52;;;;;;;5.40;1.95;;;;;;;23.57;40.11;99837.12;4525826;31;35147;-60
2021/04/25 07:28:19;;;;;;;10.68;2.28;;;;;;;23.58;40.03;99827.06;4523353;31;33768;-59
2021/04/25 07:30:47;;;;;;;14.75;3.17;;;;;;;23.57;40.07;99826.22;4519314;31;33701;-61
2021/04/25 07:33:18;;;;;;;20.48;6.95;;;;;;;23.58;39.48;99827.88;4518272;31;34788;-58
2021/04/25 07:35:49;;;;;;;19.85;4.70;;;;;;;23.55;37.57;99822.91;4532104;31;33459;-59
2021/04/25 07:38:25;;;;;;;14.65;4.60;;;;;;;23.55;38.09;99819.31;4518574;31;34746;-59
2021/04/25 07:40:52;;;;;;;21.37;5.43;;;;;;;23.54;38.74;99823.94;4531897;31;33635;-59
2021/04/25 07:43:19;;;;;;;16.42;4.85;;;;;;;23.52;38.51;99817.91;4531971;31;33603;-60
2021/04/25 07:45:46;;;;;;;15.82;4.12;;;;;;;23.52;38.28;99809.75;4531848;31;33051;-60
2021/04/25 07:48:13;;;;;;;16.45;4.28;;;;;;;23.57;38.34;99818.06;4531930;31;34749;-60
2021/04/25 07:50:41;;;;;;;12.95;4.00;;;;;;;23.68;38.30;99809.16;4531814;31;34654;-60
2021/04/25 07:53:08;;;;;;;12.18;3.70;;;;;;;23.83;38.19;99818.84;4527555;31;33838;-58
2021/04/25 07:55:35;;;;;;;11.88;3.37;;;;;;;23.99;38.03;99811.94;4520575;31;33460;-59
2021/04/25 07:58:02;;;;;;;9.18;3.33;;;;;;;24.16;37.85;99824.69;4524679;31;33709;-60
2021/04/25 08:00:34;;;;;;;20.30;4.00;;;;;;;24.31;37.67;99812.53;4515700;31;34812;-60
2021/04/25 08:03:01;;;;;;;8.68;3.20;;;;;;;24.46;37.51;99823.03;4527302;31;33792;-61
2021/04/25 08:05:31;;;;;;;14.65;3.20;;;;;;;24.59;37.37;99828.31;4531675;31;33340;-53
2021/04/25 08:07:59;;;;;;;9.18;3.10;;;;;;;24.72;37.23;99819.91;4531699;31;33761;-61
2021/04/25 08:10:26;;;;;;;10.38;3.00;;;;;;;24.83;37.11;99818.25;4531676;31;33625;-57
2021/04/25 08:12:53;;;;;;;8.88;2.53;;;;;;;24.91;37.00;99820.66;4531917;31;34492;-60
2021/04/25 08:15:23;;;;;;;11.95;2.90;;;;;;;24.98;36.90;99815.88;4532102;31;34106;-60
2021/04/25 08:17:51;;;;;;;8.35;2.53;;;;;;;25.04;36.82;99816.84;4531595;31;33567;-59
2021/04/25 08:20:18;;;;;;;8.48;3.00;;;;;;;25.09;36.75;99812.38;4531656;31;35145;-59
2021/04/25 08:22:45;;;;;;;8.95;2.70;;;;;;;25.12;36.72;99811.88;4531860;31;33808;-59
2021/04/25 08:25:13;;;;;;;6.43;2.50;;;;;;;25.14;36.68;99809.78;4531130;31;34300;-61
2021/04/25 08:27:40;;;;;;;8.30;2.72;;;;;;;25.15;36.67;99811.41;4531971;31;34627;-60
2021/04/25 08:30:21;;;;;;;8.63;2.60;;;;;;;25.17;36.65;99805.72;4531523;31;33901;-59
2021/04/25 08:33:19;;;;;;;10.55;3.03;;;;;;;25.27;36.57;99808.69;4518887;31;135279;-52
2021/04/25 08:35:46;;;;;;;7.45;3.05;;;;;;;25.18;36.38;99812.84;4505730;31;33227;-52
2021/04/25 08:38:14;;;;;;;15.80;4.30;;;;;;;25.14;35.75;99804.31;4496326;31;33913;-52
2021/04/25 08:40:41;;;;;;;11.77;3.17;;;;;;;25.13;36.22;99797.19;4495958;31;33826;-54
2021/04/25 08:43:11;;;;;;;11.90;3.60;;;;;;;25.09;36.51;99793.28;4495703;31;33540;-56
2021/04/25 08:45:39;;;;;;;13.38;4.47;;;;;;;25.08;36.07;99794.31;4487237;31;33279;-59
2021/04/25 08:48:06;;;;;;;9.70;4.25;;;;;;;25.06;35.73;99795.59;4478910;32;34510;-59
2021/04/25 08:50:34;;;;;;;13.20;5.05;;;;;;;25.03;35.40;99794.16;4475641;32;34687;-58
2021/04/25 08:53:02;;;;;;;9.85;4.37;;;;;;;25.00;35.63;99794.66;4483561;32;34397;-59
2021/04/25 08:55:29;;;;;;;12.45;4.78;;;;;;;24.96;35.49;99792.66;4479899;32;34000;-58
2021/04/25 08:57:56;;;;;;;13.70;5.00;;;;;;;24.94;35.55;99792.84;4478817;32;34842;-57
2021/04/25 09:00:23;;;;;;;14.18;5.10;;;;;;;24.92;35.76;99789.56;4479728;32;33784;-55
2021/04/25 09:02:52;;;;;;;10.70;5.35;;;;;;;24.88;35.73;99781.00;4485741;32;33984;-59
2021/04/25 09:05:20;;;;;;;13.85;5.60;;;;;;;24.86;35.68;99785.88;4495407;32;34325;-57
2021/04/25 09:07:54;;;;;;;11.60;5.37;;;;;;;24.84;35.83;99777.06;4486459;32;33756;-57
2021/04/25 09:10:29;;;;;;;14.75;5.72;;;;;;;24.83;35.86;99774.59;4494229;32;33838;-59
2021/04/25 09:12:56;;;;;;;13.77;5.82;;;;;;;24.75;35.18;99772.19;4495462;31;34461;-57
2021/04/25 09:15:30;;;;;;;8.77;4.68;;;;;;;24.74;34.56;99767.81;4495292;31;34203;-60
2021/04/25 09:17:59;;;;;;;11.85;5.05;;;;;;;24.72;35.50;99756.31;4495298;31;33760;-61
2021/04/25 09:20:44;;;;;;;13.02;6.07;;;;;;;24.68;35.74;99759.50;4495467;32;33876;-57
2021/04/25 09:23:13;;;;;;;11.73;5.78;;;;;;;24.68;35.12;99761.41;4495176;32;34275;-59
2021/04/25 09:26:03;;;;;;;10.82;5.85;;;;;;;24.64;35.09;99755.59;4495498;32;34116;-57
2021/04/25 09:28:30;;;;;;;15.73;7.50;;;;;;;24.65;34.91;99749.06;4495170;32;33809;-60
2021/04/25 09:31:08;;;;;;;12.98;6.65;;;;;;;24.55;34.06;99746.09;4493999;32;34646;-60
2021/04/25 09:33:55;;;;;;;14.90;6.85;;;;;;;24.49;33.79;99746.22;4483976;32;33671;-58
2021/04/25 09:36:28;;;;;;;15.88;7.30;;;;;;;24.48;33.80;99745.38;4483886;32;33297;-59
2021/04/25 09:39:12;;;;;;;13.10;6.35;;;;;;;24.43;34.17;99753.41;4495653;32;33966;-59
2021/04/25 09:41:39;;;;;;;16.15;6.55;;;;;;;24.45;34.59;99737.66;4495471;31;33887;-60
2021/04/25 09:44:07;;;;;;;12.32;6.37;;;;;;;24.43;34.44;99734.31;4487201;32;33703;-55
2021/04/25 09:46:51;;;;;;;14.18;5.82;;;;;;;24.42;34.47;99743.56;4484770;32;33306;-60
2021/04/25 09:49:40;;;;;;;13.15;6.97;;;;;;;24.43;34.46;99731.59;4483777;32;33863;-60
2021/04/25 09:52:15;;;;;;;11.43;6.22;;;;;;;24.42;34.64;99740.84;4470164;32;33906;-59
2021/04/25 09:54:43;;;;;;;12.05;5.97;;;;;;;24.35;34.52;99740.94;4478294;32;33487;-60
2021/04/25 09:57:44;;;;;;;12.13;6.00;;;;;;;24.35;34.52;99735.47;4476821;32;33386;-60
2021/04/25 10:00:12;;;;;;;14.10;6.62;;;;;;;24.33;34.57;99725.84;4484725;32;33780;-59
2021/04/25 10:03:18;;;;;;;11.82;5.97;;;;;;;24.31;34.73;99723.38;4483614;32;33610;-58
2021/04/25 10:05:56;;;;;;;12.10;5.50;;;;;;;24.35;34.57;99723.75;4420354;32;34428;-58
2021/04/25 10:08:32;;;;;;;13.63;5.83;;;;;;;24.31;34.92;99719.81;4464586;32;33916;-60
2021/04/25 10:11:07;;;;;;;12.63;6.15;;;;;;;24.28;34.93;99720.28;4482597;32;33833;-61
2021/04/25 10:13:36;;;;;;;12.07;5.82;;;;;;;24.25;34.63;99707.97;4484468;32;34943;-60
2021/04/25 10:16:04;;;;;;;10.85;5.70;;;;;;;24.23;34.59;99709.25;4484867;32;33659;-61
2021/04/25 10:18:31;;;;;;;11.85;5.82;;;;;;;24.22;34.47;99707.59;4484848;32;33372;-61
2021/04/25 10:20:58;;;;;;;9.60;4.80;;;;;;;24.19;34.37;99696.06;4483327;32;33723;-60
2021/04/25 10:23:30;;;;;;;11.85;5.50;;;;;;;24.17;34.32;99690.03;4484438;32;33667;-60
2021/04/25 10:25:59;;;;;;;10.43;5.45;;;;;;;24.18;34.65;99701.78;4484784;32;33618;-61
2021/04/25 10:28:37;;;;;;;12.00;5.70;;;;;;;24.17;34.49;99691.94;4483426;32;33281;-60
2021/04/25 10:31:06;;;;;;;10.38;5.35;;;;;;;24.14;34.41;99689.66;4482960;32;33776;-60
2021/04/25 10:33:59;;;;;;;17.65;5.57;;;;;;;24.12;34.51;99691.81;4483265;32;33971;-60
2021/04/25 10:36:45;;;;;;;13.70;5.50;;;;;;;24.13;34.42;99688.84;4484616;32;34350;-60
2021/04/25 10:39:52;;;;;;;12.23;5.82;;;;;;;24.10;34.83;99689.31;4484337;32;33448;-61
2021/04/25 10:42:29;;;;;;;13.02;5.32;;;;;;;24.10;34.85;99683.84;4419660;32;34146;-60
2021/04/25 10:45:04;;;;;;;11.85;5.32;;;;;;;24.05;34.78;99681.00;4419979;32;34797;-60
2021/04/25 10:47:35;;;;;;;17.42;5.22;;;;;;;24.02;34.44;99678.75;4459167;31;33433;-59
2021/04/25 10:50:09;;;;;;;11.25;4.82;;;;;;;24.02;34.42;99681.47;4483339;32;33274;-61
2021/04/25 10:52:37;;;;;;;12.35;4.55;;;;;;;24.00;34.60;99669.12;4484034;32;33519;-60
2021/04/25 10:55:11;;;;;;;11.60;4.95;;;;;;;23.98;34.91;99658.47;4483494;32;33749;-60
2021/04/25 10:58:01;;;;;;;11.73;5.60;;;;;;;23.98;34.76;99655.75;4484275;32;33717;-60
2021/04/25 11:03:03;;;;;;;;;;;;;;;23.95;34.99;99650.75;4484697;32;33867;-59
2021/04/25 11:05:39;;;;;;;12.82;5.78;;;;;;;24.04;34.48;99653.97;4483532;32;34223;-59
2021/04/25 11:08:12;;;;;;;9.40;5.18;;;;;;;23.96;34.21;99655.12;4484126;32;33669;-59
2021/04/25 11:10:54;;;;;;;9.30;4.55;;;;;;;23.93;34.50;99656.44;4484350;32;34065;-58
2021/04/25 11:13:39;;;;;;;13.45;5.00;;;;;;;23.93;34.32;99650.19;4484471;32;34593;-60
2021/04/25 11:16:18;;;;;;;11.43;4.87;;;;;;;23.92;33.71;99649.34;4483646;32;34842;-59
2021/04/25 11:18:47;;;;;;;11.73;4.95;;;;;;;23.89;33.93;99648.97;4484631;32;33829;-61
2021/04/25 11:21:32;;;;;;;9.73;4.97;;;;;;;23.87;34.03;99646.47;4484416;32;33083;-60
2021/04/25 11:24:02;;;;;;;11.12;4.65;;;;;;;23.89;34.21;99638.06;4484174;32;34819;-61
2021/04/25 11:26:39;;;;;;;9.20;4.85;;;;;;;23.83;33.96;99644.47;4484027;32;33789;-53
2021/04/25 11:29:12;;;;;;;10.63;5.05;;;;;;;23.84;33.63;99652.41;4468680;32;33385;-59
2021/04/25 11:31:42;;;;;;;8.77;5.00;;;;;;;23.83;33.63;99656.19;4468385;32;33287;-60
2021/04/25 11:34:22;;;;;;;9.23;5.22;;;;;;;23.81;33.57;99650.13;4471456;32;34544;-59
2021/04/25 11:36:50;;;;;;;10.10;5.12;;;;;;;23.83;33.70;99639.84;4484073;32;34825;-61
2021/04/25 11:39:18;;;;;;;6.95;3.50;;;;;;;23.82;33.98;99648.22;4484310;32;34610;-61
2021/04/25 11:41:46;;;;;;;12.23;5.18;;;;;;;23.78;33.82;99647.03;4484242;32;33246;-58